Time;durP1;ratioP1;P1;durP2;ratioP2;P2;SDS_P1;SDS_P2;PMS_P1;PMS_P2;Temp;Humidity;BMP_temperature;BMP_pressure;BME280_temperature;BME280_humidity;BME280_pressure;Samples;Min_cycle;Max_cycle;Signal;HPM_P1;HPM_P2
2022/07/29 00:00:52;;;;;;;13.00;12.10;;;18.60;99.90;;;;;;4928397;29;20223;-79
2022/07/29 00:03:18;;;;;;;13.77;12.87;;;18.60;99.90;;;;;;4934367;29;20202;-79
2022/07/29 00:05:45;;;;;;;12.77;11.87;;;18.60;99.90;;;;;;4926154;29;20199;-79
2022/07/29 00:08:12;;;;;;;12.77;11.77;;;18.60;99.90;;;;;;4934738;29;20199;-79
2022/07/29 00:10:39;;;;;;;12.10;11.30;;;18.60;99.90;;;;;;4933177;29;20279;-77
2022/07/29 00:13:07;;;;;;;12.57;11.67;;;18.60;99.90;;;;;;4932608;29;20191;-79
2022/07/29 00:15:34;;;;;;;13.07;12.17;;;18.60;99.90;;;;;;4933197;29;20226;-79
2022/07/29 00:18:01;;;;;;;11.73;10.87;;;18.50;99.90;;;;;;4933042;29;20203;-79
2022/07/29 00:20:28;;;;;;;13.33;12.30;;;18.40;99.90;;;;;;4935239;29;20251;-79
2022/07/29 00:22:54;;;;;;;13.00;12.10;;;18.40;99.90;;;;;;4931312;29;20207;-79
2022/07/29 00:25:21;;;;;;;12.50;11.57;;;18.40;99.90;;;;;;4937013;29;20203;-79
2022/07/29 00:27:48;;;;;;;12.77;11.97;;;18.30;99.90;;;;;;4932154;29;20199;-79
2022/07/29 00:30:16;;;;;;;13.23;12.30;;;18.30;99.90;;;;;;4937027;29;20237;-77
2022/07/29 00:32:43;;;;;;;12.60;11.70;;;18.30;99.90;;;;;;4933213;29;20286;-79
2022/07/29 00:37:54;;;;;;;12.73;11.87;;;18.20;99.90;;;;;;4936572;29;20234;-79
2022/07/29 00:40:21;;;;;;;12.87;11.97;;;18.20;99.90;;;;;;4934486;29;20215;-79
2022/07/29 00:42:51;;;;;;;12.23;11.43;;;18.20;99.90;;;;;;4928812;29;20234;-79
2022/07/29 00:45:21;;;;;;;13.47;12.57;;;18.20;99.90;;;;;;4937213;29;20274;-79
2022/07/29 00:47:48;;;;;;;7.07;6.43;;;18.10;99.90;;;;;;4929334;29;20212;-76
2022/07/29 00:50:15;;;;;;;9.37;7.00;;;18.10;99.90;;;;;;4937400;29;20720;-79
2022/07/29 00:52:43;;;;;;;7.27;6.57;;;18.10;99.90;;;;;;4928132;29;20678;-79
2022/07/29 00:55:12;;;;;;;12.90;11.93;;;18.00;99.90;;;;;;4929730;29;20266;-79
2022/07/29 00:57:39;;;;;;;14.47;13.37;;;17.90;99.90;;;;;;4929590;29;20199;-79
2022/07/29 01:00:15;;;;;;;13.97;13.03;;;17.90;99.90;;;;;;4936490;29;20790;-79
2022/07/29 01:02:43;;;;;;;7.23;6.53;;;17.80;99.90;;;;;;4937214;29;20683;-78
2022/07/29 01:05:11;;;;;;;7.57;6.87;;;17.80;99.90;;;;;;4917480;29;20206;-79
2022/07/29 01:07:39;;;;;;;13.20;12.30;;;17.80;99.90;;;;;;4933470;29;20206;-79
2022/07/29 01:10:08;;;;;;;13.90;13.00;;;17.70;99.90;;;;;;4917247;29;20227;-79
2022/07/29 01:12:37;;;;;;;13.57;12.67;;;17.70;99.90;;;;;;4918784;29;20638;-79
2022/07/29 01:15:07;;;;;;;14.00;13.10;;;17.70;99.90;;;;;;4932983;29;20265;-79
2022/07/29 01:17:52;;;;;;;14.37;13.37;;;17.70;99.90;;;;;;4932801;29;20210;-79
2022/07/29 01:20:27;;;;;;;14.20;13.27;;;17.70;99.90;;;;;;4918795;29;20222;-79
2022/07/29 01:23:36;;;;;;;13.93;13.03;;;17.70;99.90;;;;;;4918135;29;20216;-79
2022/07/29 01:26:23;;;;;;;14.00;13.00;;;17.70;99.90;;;;;;4930100;29;20221;-79
2022/07/29 01:29:10;;;;;;;12.13;11.30;;;17.70;99.90;;;;;;4936021;29;20214;-79
2022/07/29 01:31:45;;;;;;;6.97;6.27;;;17.70;99.90;;;;;;4931582;29;20588;-79
2022/07/29 01:34:18;;;;;;;7.47;6.77;;;17.70;99.90;;;;;;4923736;29;20198;-79
2022/07/29 01:36:51;;;;;;;8.00;7.30;;;17.70;99.90;;;;;;4929351;29;20212;-79
2022/07/29 01:39:22;;;;;;;7.80;7.00;;;17.70;99.90;;;;;;4933560;29;20291;-79
2022/07/29 01:41:55;;;;;;;8.80;8.00;;;17.70;99.90;;;;;;4932159;29;20210;-79
2022/07/29 01:44:31;;;;;;;13.70;12.70;;;17.70;99.90;;;;;;4935124;29;20202;-79
2022/07/29 01:47:02;;;;;;;11.63;10.83;;;17.60;99.90;;;;;;4935431;29;20206;-79
2022/07/29 01:49:32;;;;;;;12.13;11.13;;;17.60;99.90;;;;;;4931651;29;20223;-79
2022/07/29 01:52:04;;;;;;;12.40;11.50;;;17.60;99.90;;;;;;4930790;29;20250;-79
2022/07/29 01:54:37;;;;;;;12.80;12.00;;;17.50;99.90;;;;;;4935250;29;20706;-79
2022/07/29 01:57:07;;;;;;;13.30;12.40;;;17.60;99.90;;;;;;4935544;29;20219;-78
2022/07/29 01:59:37;;;;;;;13.33;12.37;;;17.60;99.90;;;;;;4935337;29;20313;-79
2022/07/29 02:02:08;;;;;;;13.37;12.47;;;17.60;99.90;;;;;;4932143;29;20210;-79
2022/07/29 02:04:36;;;;;;;13.50;12.40;;;17.50;99.90;;;;;;4932228;29;20210;-79
2022/07/29 02:07:06;;;;;;;11.13;10.33;;;17.60;99.90;;;;;;4934653;29;20259;-78
2022/07/29 02:09:36;;;;;;;7.97;7.27;;;17.50;99.90;;;;;;4936845;29;20226;-79
2022/07/29 02:12:04;;;;;;;8.47;7.70;;;17.40;99.90;;;;;;4943108;29;20748;-79
2022/07/29 02:14:36;;;;;;;11.80;11.00;;;17.40;99.90;;;;;;4929842;29;20210;-79
2022/07/29 02:17:04;;;;;;;11.47;10.67;;;17.40;99.90;;;;;;4935121;29;20214;-79
2022/07/29 02:19:33;;;;;;;12.10;11.30;;;17.50;99.90;;;;;;4932793;29;20227;-79
2022/07/29 02:22:02;;;;;;;11.93;11.03;;;17.40;99.90;;;;;;4934900;29;20207;-79
2022/07/29 02:24:30;;;;;;;7.73;7.03;;;17.40;99.90;;;;;;4933500;29;20200;-79
2022/07/29 02:26:58;;;;;;;6.67;6.07;;;17.40;99.90;;;;;;4934635;29;20261;-79
2022/07/29 02:29:29;;;;;;;6.47;5.87;;;17.40;99.90;;;;;;4929532;29;20762;-79
2022/07/29 02:31:59;;;;;;;7.40;6.70;;;17.40;99.90;;;;;;4934844;29;20215;-77
2022/07/29 02:34:27;;;;;;;7.57;6.77;;;17.40;99.90;;;;;;4929413;29;20201;-79
2022/07/29 02:36:56;;;;;;;7.23;6.63;;;17.40;99.90;;;;;;4935894;29;20261;-79
2022/07/29 02:39:25;;;;;;;7.70;6.90;;;17.40;99.90;;;;;;4931107;29;20657;-79
2022/07/29 02:41:56;;;;;;;7.50;6.80;;;17.40;99.90;;;;;;4930352;29;20199;-79
2022/07/29 02:44:26;;;;;;;7.60;6.90;;;17.30;99.90;;;;;;4933721;29;20201;-79
2022/07/29 02:46:57;;;;;;;8.27;7.50;;;17.30;99.90;;;;;;4932746;29;20203;-79
2022/07/29 02:49:35;;;;;;;12.00;11.00;;;17.30;99.90;;;;;;4931176;29;20769;-79
2022/07/29 02:52:04;;;;;;;13.20;12.27;;;17.40;99.90;;;;;;4933807;29;20201;-78
2022/07/29 02:54:35;;;;;;;12.77;11.87;;;17.40;99.90;;;;;;4960996;28;20670;-76
2022/07/29 02:57:10;;;;;;;12.90;12.00;;;17.30;99.90;;;;;;4932948;29;20202;-78
2022/07/29 02:59:38;;;;;;;13.43;12.53;;;17.30;99.90;;;;;;4936019;29;20248;-79
2022/07/29 03:02:06;;;;;;;14.30;13.40;;;17.30;99.90;;;;;;4938449;29;20297;-78
2022/07/29 03:04:36;;;;;;;15.20;14.20;;;17.30;99.90;;;;;;4935300;29;20210;-79
2022/07/29 03:07:05;;;;;;;13.50;12.60;;;17.30;99.90;;;;;;4936856;29;20216;-78
2022/07/29 03:09:33;;;;;;;13.60;12.60;;;17.30;99.90;;;;;;4937085;29;20273;-77
2022/07/29 03:12:01;;;;;;;14.00;12.80;;;17.20;99.90;;;;;;4936643;29;20198;-78
2022/07/29 03:14:28;;;;;;;13.80;12.80;;;17.20;99.90;;;;;;4936296;29;20306;-77
2022/07/29 03:16:56;;;;;;;16.87;15.57;;;17.20;99.90;;;;;;4936920;29;20229;-79
2022/07/29 03:19:23;;;;;;;17.47;16.27;;;17.20;99.90;;;;;;4938722;29;20224;-78
2022/07/29 03:21:52;;;;;;;17.67;16.33;;;17.20;99.90;;;;;;4931812;29;20560;-80
2022/07/29 03:24:30;;;;;;;15.90;14.77;;;17.30;99.90;;;;;;4938466;29;20218;-77
2022/07/29 03:26:57;;;;;;;15.00;13.90;;;17.20;99.90;;;;;;4937570;29;20214;-78
2022/07/29 03:29:25;;;;;;;15.23;14.13;;;17.20;99.90;;;;;;4935912;29;20234;-78
2022/07/29 03:31:52;;;;;;;15.50;14.40;;;17.20;99.90;;;;;;4938079;29;20209;-79
2022/07/29 03:34:19;;;;;;;15.80;14.70;;;17.10;99.90;;;;;;4938764;29;20197;-78
2022/07/29 03:36:46;;;;;;;14.97;13.97;;;17.10;99.90;;;;;;4938472;29;20281;-80
2022/07/29 03:39:17;;;;;;;15.13;14.03;;;17.10;99.90;;;;;;4936039;29;20289;-79
2022/07/29 03:41:46;;;;;;;14.63;13.63;;;17.10;99.90;;;;;;4931789;29;20207;-78
2022/07/29 03:44:16;;;;;;;14.80;13.80;;;17.00;99.90;;;;;;4923657;29;20228;-78
2022/07/29 03:46:45;;;;;;;15.77;14.77;;;17.00;99.90;;;;;;4939495;29;20212;-78
2022/07/29 03:49:13;;;;;;;14.73;13.83;;;17.00;99.90;;;;;;4933366;29;20261;-79
2022/07/29 03:51:40;;;;;;;13.37;12.57;;;17.00;99.90;;;;;;4937171;29;20620;-80
2022/07/29 03:54:08;;;;;;;14.13;13.17;;;17.00;99.90;;;;;;4940063;29;20603;-79
2022/07/29 03:56:40;;;;;;;14.50;13.60;;;17.00;99.90;;;;;;4940780;29;20250;-80
2022/07/29 03:59:07;;;;;;;14.70;13.70;;;17.00;99.90;;;;;;4934115;29;20247;-78
2022/07/29 04:01:35;;;;;;;14.97;13.97;;;17.00;99.90;;;;;;4935206;29;20203;-79
2022/07/29 04:04:03;;;;;;;14.03;13.13;;;17.00;99.90;;;;;;4939156;29;20207;-79
2022/07/29 04:06:37;;;;;;;14.97;13.97;;;17.10;99.90;;;;;;4939200;29;20296;-79
2022/07/29 04:09:04;;;;;;;14.37;13.37;;;17.10;99.90;;;;;;4938967;29;20206;-78
2022/07/29 04:11:31;;;;;;;14.77;13.77;;;17.10;99.90;;;;;;4936267;29;20202;-78
2022/07/29 04:13:59;;;;;;;14.90;13.90;;;17.20;99.90;;;;;;4938043;29;20198;-79
2022/07/29 04:16:26;;;;;;;14.90;13.90;;;17.20;99.90;;;;;;4936000;29;20250;-80
2022/07/29 04:18:53;;;;;;;15.60;14.53;;;17.20;99.90;;;;;;4940473;29;20199;-80
2022/07/29 04:21:19;;;;;;;15.20;14.20;;;17.20;99.90;;;;;;4940139;29;20273;-79
2022/07/29 04:23:49;;;;;;;14.53;13.63;;;17.20;99.90;;;;;;4938897;29;20207;-80
2022/07/29 04:26:16;;;;;;;14.80;13.80;;;17.20;99.90;;;;;;4938645;29;20207;-79
2022/07/29 04:28:43;;;;;;;14.97;13.90;;;17.20;99.90;;;;;;4940467;29;20767;-80
2022/07/29 04:31:12;;;;;;;14.10;13.20;;;17.20;99.90;;;;;;4955400;29;20219;-79
2022/07/29 04:33:39;;;;;;;14.23;13.33;;;17.20;99.90;;;;;;4937813;29;20264;-79
2022/07/29 04:36:06;;;;;;;14.47;13.53;;;17.20;99.90;;;;;;4938540;29;20222;-79
2022/07/29 04:38:33;;;;;;;13.70;12.80;;;17.20;99.90;;;;;;4939412;29;20209;-79
2022/07/29 04:40:59;;;;;;;14.03;13.13;;;17.30;99.90;;;;;;4936529;29;20274;-79
2022/07/29 04:43:26;;;;;;;15.13;14.03;;;17.30;99.90;;;;;;4941439;29;20416;-79
2022/07/29 04:45:53;;;;;;;14.67;13.67;;;17.30;99.90;;;;;;4939085;29;20192;-79
2022/07/29 04:48:21;;;;;;;15.27;14.17;;;17.30;99.90;;;;;;4940527;29;20198;-79
2022/07/29 04:50:48;;;;;;;13.87;12.90;;;17.30;99.90;;;;;;4938667;29;20227;-78
2022/07/29 04:53:14;;;;;;;14.70;13.70;;;17.30;99.90;;;;;;4938615;29;20203;-79
2022/07/29 04:55:41;;;;;;;13.10;12.30;;;17.30;99.90;;;;;;4938750;29;20696;-79
2022/07/29 04:58:08;;;;;;;14.13;13.13;;;17.30;99.90;;;;;;4933903;29;20642;-79
2022/07/29 05:00:35;;;;;;;13.67;12.77;;;17.40;99.90;;;;;;4939017;29;20289;-79
2022/07/29 05:03:02;;;;;;;11.23;10.43;;;17.50;99.90;;;;;;4939246;29;20203;-79
2022/07/29 05:05:30;;;;;;;11.30;10.50;;;17.40;99.90;;;;;;4934754;29;20265;-80
2022/07/29 05:07:57;;;;;;;12.00;11.20;;;17.50;99.90;;;;;;4942149;29;20206;-79
2022/07/29 05:10:24;;;;;;;13.50;12.60;;;17.60;99.90;;;;;;4943001;29;20230;-79
2022/07/29 05:12:51;;;;;;;14.47;13.47;;;17.70;99.90;;;;;;4942087;29;20237;-79
2022/07/29 05:15:18;;;;;;;13.73;12.83;;;17.70;99.90;;;;;;4939445;29;20196;-80
2022/07/29 05:17:45;;;;;;;14.30;13.40;;;17.80;99.90;;;;;;4940940;29;20281;-80
2022/07/29 05:20:12;;;;;;;14.37;13.47;;;18.00;99.90;;;;;;4942715;29;20624;-80
2022/07/29 05:22:40;;;;;;;16.07;15.07;;;18.10;99.90;;;;;;4938102;29;20207;-80
2022/07/29 05:25:08;;;;;;;15.90;14.90;;;18.20;99.90;;;;;;4937365;29;20211;-80
2022/07/29 05:27:36;;;;;;;14.13;13.23;;;18.30;99.90;;;;;;4938165;29;20199;-79
2022/07/29 05:30:03;;;;;;;15.47;14.47;;;18.40;99.90;;;;;;4936988;29;20264;-80
2022/07/29 05:32:30;;;;;;;10.43;9.73;;;18.50;99.90;;;;;;4938151;29;20283;-79
2022/07/29 05:34:57;;;;;;;9.83;9.13;;;18.70;99.90;;;;;;4939774;29;20224;-79
2022/07/29 05:37:23;;;;;;;10.03;9.23;;;18.80;99.90;;;;;;4940836;29;20216;-80
2022/07/29 05:39:51;;;;;;;10.73;10.03;;;18.90;99.90;;;;;;4939674;29;20216;-80
2022/07/29 05:42:18;;;;;;;11.67;10.87;;;19.10;99.90;;;;;;4942721;29;20746;-80
2022/07/29 05:44:45;;;;;;;11.30;10.50;;;19.30;99.90;;;;;;4937570;29;20618;-80
2022/07/29 05:47:12;;;;;;;11.37;10.57;;;19.40;99.90;;;;;;4937791;29;20405;-80
2022/07/29 05:49:39;;;;;;;11.80;11.00;;;19.70;99.90;;;;;;4942267;29;20325;-80
2022/07/29 05:52:05;;;;;;;6.50;5.90;;;19.90;99.90;;;;;;4938498;29;20207;-81
2022/07/29 05:54:32;;;;;;;6.03;5.37;;;20.40;99.90;;;;;;4941095;29;20688;-80
2022/07/29 05:57:00;;;;;;;6.73;5.00;;;20.70;99.90;;;;;;4937588;29;20223;-77
2022/07/29 05:59:27;;;;;;;4.97;4.57;;;21.10;99.90;;;;;;4933071;29;20359;-77
2022/07/29 06:01:56;;;;;;;5.20;4.63;;;21.10;99.90;;;;;;4932775;29;20206;-77
2022/07/29 06:04:23;;;;;;;4.60;4.20;;;21.10;99.90;;;;;;4936032;29;20250;-78
2022/07/29 06:06:50;;;;;;;7.30;6.70;;;21.10;99.90;;;;;;4931354;29;20741;-77
2022/07/29 06:09:17;;;;;;;7.97;7.27;;;21.10;99.90;;;;;;4931887;29;20709;-77
2022/07/29 06:11:43;;;;;;;9.83;9.13;;;21.00;99.90;;;;;;4933943;29;20199;-77
2022/07/29 06:14:11;;;;;;;9.87;9.17;;;21.00;99.90;;;;;;4928633;29;20665;-76
2022/07/29 06:16:38;;;;;;;10.37;9.67;;;21.00;99.90;;;;;;4933620;29;20216;-77
2022/07/29 06:19:05;;;;;;;10.17;9.47;;;21.20;99.90;;;;;;4935002;29;20199;-76
2022/07/29 06:21:32;;;;;;;9.70;9.10;;;21.50;99.90;;;;;;4943784;29;20207;-78
2022/07/29 06:23:59;;;;;;;9.70;8.90;;;21.60;99.90;;;;;;4929432;29;20279;-77
2022/07/29 06:26:25;;;;;;;9.97;9.27;;;21.70;99.90;;;;;;4924771;29;20195;-78
2022/07/29 06:28:52;;;;;;;8.87;8.27;;;21.80;99.90;;;;;;4937163;29;20267;-77
2022/07/29 06:31:20;;;;;;;9.77;9.07;;;21.90;99.90;;;;;;4930942;29;20219;-77
2022/07/29 06:33:47;;;;;;;9.63;8.93;;;21.90;99.90;;;;;;4935413;29;20603;-76
2022/07/29 06:36:14;;;;;;;9.10;8.50;;;22.00;99.90;;;;;;4934103;29;20685;-79
2022/07/29 06:38:41;;;;;;;10.13;9.27;;;22.10;99.90;;;;;;4937184;29;20302;-79
2022/07/29 06:41:12;;;;;;;9.40;8.80;;;22.30;99.90;;;;;;4934291;29;20275;-79
2022/07/29 06:43:41;;;;;;;9.13;8.43;;;22.50;99.90;;;;;;4930006;29;20255;-77
2022/07/29 06:46:09;;;;;;;8.57;7.97;;;23.00;99.90;;;;;;4932578;29;20207;-77
2022/07/29 06:48:38;;;;;;;8.90;8.30;;;23.40;99.90;;;;;;4929435;29;20279;-77
2022/07/29 06:51:06;;;;;;;10.67;9.80;;;24.00;99.90;;;;;;4936212;29;20215;-77
2022/07/29 06:53:34;;;;;;;8.97;8.37;;;24.60;99.90;;;;;;4935021;29;20611;-77
2022/07/29 06:56:02;;;;;;;10.67;9.87;;;24.90;99.90;;;;;;4936831;29;20211;-77
2022/07/29 06:58:30;;;;;;;10.23;9.53;;;25.20;99.90;;;;;;4936673;29;20235;-78
2022/07/29 07:00:57;;;;;;;9.10;8.40;;;25.30;99.90;;;;;;4937688;29;20233;-78
2022/07/29 07:03:24;;;;;;;7.87;7.33;;;25.80;99.90;;;;;;4930960;29;20259;-77
2022/07/29 07:05:54;;;;;;;9.27;7.97;;;26.30;99.90;;;;;;4935281;29;20207;-77
2022/07/29 07:08:22;;;;;;;8.30;7.60;;;26.60;99.90;;;;;;4936241;29;20194;-77
2022/07/29 07:10:49;;;;;;;8.10;7.33;;;26.70;99.90;;;;;;4936103;29;20313;-78
2022/07/29 07:13:17;;;;;;;9.60;8.90;;;26.90;99.90;;;;;;4935656;29;20254;-77
2022/07/29 07:15:44;;;;;;;9.13;8.20;;;27.10;99.90;;;;;;4931536;29;20290;-78
2022/07/29 07:18:11;;;;;;;8.77;8.10;;;27.20;99.90;;;;;;4932261;29;20277;-78
2022/07/29 07:20:38;;;;;;;8.90;8.30;;;26.80;99.90;;;;;;4939760;29;20230;-78
2022/07/29 07:23:06;;;;;;;9.10;8.50;;;26.40;99.90;;;;;;4937249;29;20589;-78
2022/07/29 07:25:33;;;;;;;9.03;8.23;;;26.10;99.90;;;;;;4938211;29;20614;-78
2022/07/29 07:28:00;;;;;;;9.03;8.30;;;25.80;99.90;;;;;;4933498;29;20665;-78
2022/07/29 07:30:27;;;;;;;8.77;8.10;;;25.60;99.90;;;;;;4940537;29;20227;-78
2022/07/29 07:32:54;;;;;;;9.10;8.40;;;25.90;99.90;;;;;;4937811;29;20266;-78
2022/07/29 07:35:20;;;;;;;8.73;8.03;;;26.20;99.90;;;;;;4934488;29;20243;-78
2022/07/29 07:37:47;;;;;;;9.03;8.43;;;26.50;99.90;;;;;;4935494;29;20271;-78
2022/07/29 07:40:15;;;;;;;9.20;8.43;;;26.90;99.90;;;;;;4930308;29;20274;-78
2022/07/29 07:42:42;;;;;;;9.13;8.33;;;27.30;99.90;;;;;;4936489;29;20219;-78
2022/07/29 07:45:10;;;;;;;8.70;8.10;;;27.80;99.90;;;;;;4928969;29;20258;-78
2022/07/29 07:47:37;;;;;;;8.73;8.13;;;28.30;99.90;;;;;;4952357;29;20200;-78
2022/07/29 07:50:05;;;;;;;8.40;7.60;;;28.40;99.90;;;;;;4936794;29;20784;-79
2022/07/29 07:52:32;;;;;;;8.90;8.30;;;28.50;99.90;;;;;;4937381;29;20262;-78
2022/07/29 07:54:59;;;;;;;8.57;7.87;;;28.30;99.90;;;;;;4935466;29;20241;-81
2022/07/29 07:57:27;;;;;;;8.17;7.60;;;28.30;99.90;;;;;;4935017;29;20219;-79
2022/07/29 07:59:54;;;;;;;8.57;7.97;;;28.50;99.90;;;;;;4932715;29;20279;-78
2022/07/29 08:02:21;;;;;;;9.00;8.20;;;28.80;99.90;;;;;;4931547;29;20208;-78
2022/07/29 08:04:48;;;;;;;8.23;7.73;;;29.00;99.90;;;;;;4928748;29;20200;-78
2022/07/29 08:07:15;;;;;;;8.87;8.17;;;29.30;99.90;;;;;;4935248;29;20214;-78
2022/07/29 08:09:42;;;;;;;8.90;8.30;;;29.50;99.90;;;;;;4935587;29;20707;-79
2022/07/29 08:12:09;;;;;;;9.40;8.60;;;29.60;99.90;;;;;;4921264;29;20208;-78
2022/07/29 08:14:37;;;;;;;9.00;8.30;;;29.50;99.90;;;;;;4927949;29;20211;-78
2022/07/29 08:17:04;;;;;;;8.33;7.80;;;29.70;99.90;;;;;;4931210;29;20200;-78
2022/07/29 08:19:31;;;;;;;8.10;7.50;;;29.90;99.90;;;;;;4934888;29;20222;-78
2022/07/29 08:21:57;;;;;;;8.47;7.77;;;29.80;99.90;;;;;;4933603;29;20778;-79
2022/07/29 08:27:09;;;;;;;7.60;7.00;;;30.20;99.90;;;;;;4936864;29;20211;-79
2022/07/29 08:29:38;;;;;;;8.80;6.40;;;30.40;99.90;;;;;;4925043;29;20274;-79
2022/07/29 08:32:06;;;;;;;7.10;6.50;;;30.20;99.90;;;;;;4937548;29;20771;-79
2022/07/29 08:34:33;;;;;;;7.60;7.00;;;30.40;99.90;;;;;;4931770;29;20759;-79
2022/07/29 08:37:00;;;;;;;7.03;6.53;;;30.50;99.90;;;;;;4937533;29;20196;-79
2022/07/29 08:39:26;;;;;;;6.63;6.13;;;30.70;99.90;;;;;;4934090;29;20219;-79
2022/07/29 08:41:54;;;;;;;6.70;6.20;;;30.60;99.90;;;;;;4933543;29;20199;-79
2022/07/29 08:44:22;;;;;;;6.40;5.80;;;30.90;99.90;;;;;;4941381;29;20246;-79
2022/07/29 08:46:50;;;;;;;3.60;3.30;;;30.90;99.90;;;;;;4934011;29;20258;-78
2022/07/29 08:49:18;;;;;;;4.83;4.33;;;30.70;99.90;;;;;;4937181;29;20719;-78
2022/07/29 08:51:45;;;;;;;6.17;3.83;;;30.80;99.90;;;;;;4937717;29;20204;-79
2022/07/29 08:54:18;;;;;;;6.23;4.03;;;30.80;99.90;;;;;;4940818;29;20195;-79
2022/07/29 08:56:46;;;;;;;4.30;3.37;;;31.00;99.90;;;;;;4940079;29;20196;-79
2022/07/29 08:59:14;;;;;;;3.63;3.33;;;31.00;99.90;;;;;;4932896;29;20266;-79
2022/07/29 09:01:44;;;;;;;6.03;4.23;;;31.00;99.90;;;;;;4937792;29;20246;-79
2022/07/29 09:04:14;;;;;;;4.17;3.77;;;31.10;99.90;;;;;;4938916;29;20712;-78
2022/07/29 09:06:45;;;;;;;5.87;5.37;;;31.30;99.90;;;;;;4934815;29;20233;-79
2022/07/29 09:09:13;;;;;;;5.77;3.50;;;31.50;99.90;;;;;;4937471;29;20610;-79
2022/07/29 09:11:40;;;;;;;5.80;5.30;;;31.70;99.90;;;;;;4938902;29;20204;-78
2022/07/29 09:14:08;;;;;;;5.50;5.00;;;31.40;99.60;;;;;;4939486;29;20235;-78
2022/07/29 09:16:53;;;;;;;4.43;3.40;;;31.20;99.90;;;;;;4934803;29;20195;-79
2022/07/29 09:19:26;;;;;;;6.07;5.57;;;31.00;99.90;;;;;;4934062;29;20219;-78
2022/07/29 09:22:00;;;;;;;4.57;4.20;;;30.80;99.90;;;;;;4939930;29;20574;-79
2022/07/29 09:24:38;;;;;;;4.53;3.60;;;30.80;99.90;;;;;;4940159;29;20187;-79
2022/07/29 09:27:09;;;;;;;4.30;3.50;;;31.00;99.90;;;;;;4939618;29;20720;-79
2022/07/29 09:29:37;;;;;;;8.00;7.33;;;30.80;99.90;;;;;;4937019;29;20376;-78
2022/07/29 09:32:09;;;;;;;5.50;5.07;;;30.40;99.90;;;;;;4934829;29;20242;-79
2022/07/29 09:34:38;;;;;;;7.87;7.27;;;30.30;99.90;;;;;;4932167;29;20233;-79
2022/07/29 09:37:05;;;;;;;7.50;6.90;;;30.20;99.90;;;;;;4936616;29;20195;-79
2022/07/29 09:39:33;;;;;;;7.13;6.57;;;30.20;99.90;;;;;;4941232;29;20219;-78
2022/07/29 09:42:02;;;;;;;7.27;6.67;;;30.20;99.90;;;;;;4935443;29;20204;-78
2022/07/29 09:44:42;;;;;;;6.47;3.90;;;30.40;99.90;;;;;;4949290;29;20259;-78
2022/07/29 09:47:09;;;;;;;4.87;3.40;;;30.50;99.90;;;;;;4929958;29;20628;-79
2022/07/29 09:49:52;;;;;;;6.03;3.80;;;30.70;99.90;;;;;;4936399;29;20216;-79
2022/07/29 09:52:20;;;;;;;4.83;3.50;;;30.50;99.90;;;;;;4930651;29;20205;-79
2022/07/29 09:54:47;;;;;;;6.20;3.63;;;30.40;99.90;;;;;;4935697;29;20195;-79
2022/07/29 09:57:25;;;;;;;6.60;4.00;;;30.60;99.90;;;;;;4942507;29;20192;-78
2022/07/29 10:00:00;;;;;;;7.40;6.80;;;31.30;99.90;;;;;;4933577;29;20230;-79
2022/07/29 10:02:32;;;;;;;5.10;4.60;;;31.90;99.90;;;;;;4940323;29;20191;-79
2022/07/29 10:05:00;;;;;;;7.40;6.63;;;31.80;99.00;;;;;;4948819;29;20284;-79
2022/07/29 10:07:43;;;;;;;7.23;6.63;;;31.80;97.90;;;;;;4940737;29;20207;-79
2022/07/29 10:10:10;;;;;;;6.40;6.00;;;32.00;99.30;;;;;;4924680;29;20215;-78
2022/07/29 10:12:49;;;;;;;7.30;6.70;;;32.30;99.90;;;;;;4938316;29;20199;-79
2022/07/29 10:15:16;;;;;;;7.72;7.03;;;32.40;98.40;;;;;;4947373;29;20274;-79
2022/07/29 10:17:44;;;;;;;7.80;7.10;;;32.30;98.50;;;;;;4939412;29;20191;-79
2022/07/29 10:20:12;;;;;;;7.53;7.03;;;31.80;97.50;;;;;;4925455;29;20215;-78
2022/07/29 10:22:40;;;;;;;7.60;7.00;;;30.90;98.20;;;;;;4937994;29;20211;-80
2022/07/29 10:25:09;;;;;;;7.27;6.77;;;30.60;99.10;;;;;;4929769;29;20202;-79
2022/07/29 10:27:36;;;;;;;8.43;7.60;;;30.80;99.80;;;;;;4936838;29;20215;-80
2022/07/29 10:30:04;;;;;;;8.20;7.23;;;31.20;99.80;;;;;;4939353;29;20215;-78
2022/07/29 10:32:55;;;;;;;7.33;6.83;;;31.60;98.90;;;;;;4938125;29;20643;-78
2022/07/29 10:35:36;;;;;;;7.63;6.93;;;31.70;98.30;;;;;;4933872;29;20207;-79
2022/07/29 10:38:16;;;;;;;7.90;7.30;;;31.40;97.00;;;;;;4938371;29;20214;-79
2022/07/29 10:43:42;;;;;;;8.00;7.23;;;30.70;97.80;;;;;;4934466;29;20199;-79
2022/07/29 10:46:10;;;;;;;7.70;6.97;;;30.70;98.10;;;;;;4931001;29;20222;-79
2022/07/29 10:49:08;;;;;;;7.83;7.23;;;30.90;98.30;;;;;;4939824;29;20219;-79
2022/07/29 10:52:04;;;;;;;7.87;7.27;;;31.10;98.50;;;;;;4927757;29;20207;-78
2022/07/29 10:54:39;;;;;;;7.70;7.10;;;30.70;98.40;;;;;;4937643;29;20207;-79
2022/07/29 10:57:16;;;;;;;7.97;7.20;;;30.70;98.50;;;;;;4925909;29;20207;-79
2022/07/29 10:59:45;;;;;;;8.00;7.20;;;30.40;97.20;;;;;;4939584;29;20234;-78
2022/07/29 11:02:43;;;;;;;8.00;7.40;;;30.20;97.90;;;;;;4926815;29;20630;-78
2022/07/29 11:05:12;;;;;;;7.23;6.63;;;29.80;99.20;;;;;;4931060;29;20661;-78
2022/07/29 11:08:01;;;;;;;7.70;7.10;;;29.70;99.10;;;;;;4938686;29;20255;-78
2022/07/29 11:10:27;;;;;;;8.03;7.40;;;29.80;99.40;;;;;;4937365;29;20227;-78
2022/07/29 11:12:54;;;;;;;7.37;6.67;;;30.00;98.40;;;;;;4938660;29;20203;-78
2022/07/29 11:15:23;;;;;;;7.60;7.10;;;30.10;98.40;;;;;;4932299;29;20206;-78
2022/07/29 11:18:09;;;;;;;7.60;7.00;;;30.30;99.20;;;;;;4937009;29;20210;-78
2022/07/29 11:20:41;;;;;;;7.70;7.00;;;30.40;98.30;;;;;;4937731;29;20230;-79
2022/07/29 11:23:26;;;;;;;7.30;6.67;;;30.70;98.40;;;;;;4949744;29;20295;-78
2022/07/29 11:26:14;;;;;;;8.13;7.20;;;30.80;97.20;;;;;;4945032;29;20226;-79
2022/07/29 11:28:51;;;;;;;7.13;6.63;;;30.60;97.10;;;;;;4938908;29;20215;-79
2022/07/29 11:31:32;;;;;;;7.27;6.63;;;30.50;96.50;;;;;;4937243;29;20282;-78
2022/07/29 11:34:20;;;;;;;7.00;6.30;;;30.50;98.20;;;;;;4936135;29;20222;-78
2022/07/29 11:37:16;;;;;;;7.37;6.67;;;30.50;98.90;;;;;;4933463;29;20206;-79
2022/07/29 11:39:46;;;;;;;7.50;6.80;;;30.00;98.30;;;;;;4930370;29;20721;-78
2022/07/29 11:42:38;;;;;;;7.30;6.80;;;29.50;99.20;;;;;;4930476;29;20207;-78
2022/07/29 11:45:07;;;;;;;6.17;5.67;;;28.90;99.90;;;;;;4934232;29;20199;-78
2022/07/29 11:47:37;;;;;;;6.37;5.83;;;28.60;99.90;;;;;;4931282;29;20210;-78
2022/07/29 11:50:07;;;;;;;5.63;5.10;;;28.60;99.90;;;;;;4937580;29;20246;-79
2022/07/29 11:52:36;;;;;;;7.20;6.60;;;28.80;99.70;;;;;;4935688;29;20199;-78
2022/07/29 11:55:07;;;;;;;6.00;5.50;;;28.50;99.50;;;;;;4937068;29;20209;-79
2022/07/29 11:57:36;;;;;;;7.13;5.50;;;28.50;99.90;;;;;;4933218;29;20227;-77
2022/07/29 12:00:07;;;;;;;7.63;6.83;;;28.30;99.90;;;;;;4930286;29;20295;-79
2022/07/29 12:02:41;;;;;;;8.13;7.40;;;28.10;99.90;;;;;;4937252;29;20661;-78
2022/07/29 12:05:09;;;;;;;7.93;7.13;;;27.50;99.90;;;;;;4943986;29;20206;-78
2022/07/29 12:07:36;;;;;;;7.97;7.23;;;27.40;99.90;;;;;;4935170;29;20255;-78
2022/07/29 12:10:06;;;;;;;8.20;7.50;;;27.40;99.90;;;;;;4936452;29;20223;-78
2022/07/29 12:12:33;;;;;;;7.97;7.20;;;27.20;99.90;;;;;;4932537;29;20548;-78
2022/07/29 12:15:12;;;;;;;7.80;7.13;;;27.00;99.90;;;;;;4928722;29;20210;-78
2022/07/29 12:17:40;;;;;;;7.50;6.90;;;26.60;99.90;;;;;;4929283;29;20199;-78
2022/07/29 12:20:07;;;;;;;7.70;7.00;;;26.20;99.90;;;;;;4931172;29;20728;-78
2022/07/29 12:22:37;;;;;;;8.93;7.83;;;25.70;99.90;;;;;;4931355;29;20582;-78
2022/07/29 12:25:08;;;;;;;7.67;6.90;;;25.40;99.90;;;;;;4935124;29;20669;-80
2022/07/29 12:27:36;;;;;;;7.20;6.60;;;25.30;99.90;;;;;;4951682;29;20207;-79
2022/07/29 12:30:06;;;;;;;6.90;6.27;;;24.90;99.90;;;;;;4936629;29;20219;-78
2022/07/29 12:32:34;;;;;;;6.53;6.03;;;24.80;99.90;;;;;;4932631;29;20574;-79
2022/07/29 12:35:05;;;;;;;6.83;6.27;;;24.50;99.90;;;;;;4929345;29;20221;-79
2022/07/29 12:37:33;;;;;;;6.87;6.37;;;24.20;99.90;;;;;;4932049;29;20735;-79
2022/07/29 12:40:00;;;;;;;6.77;6.17;;;24.10;99.90;;;;;;4941394;29;20295;-79
2022/07/29 12:42:28;;;;;;;6.67;6.17;;;24.10;99.90;;;;;;4933147;29;20207;-79
2022/07/29 12:44:55;;;;;;;7.07;6.47;;;24.20;99.90;;;;;;4929584;29;20204;-79
2022/07/29 12:47:23;;;;;;;6.80;6.20;;;24.40;99.90;;;;;;4923194;29;20204;-79
2022/07/29 12:49:51;;;;;;;6.57;5.97;;;24.60;99.90;;;;;;4931616;29;20696;-79
2022/07/29 12:52:32;;;;;;;6.70;6.20;;;24.50;99.90;;;;;;4936186;29;20265;-79
2022/07/29 12:55:00;;;;;;;7.10;6.50;;;24.60;99.90;;;;;;4931514;29;20677;-79
2022/07/29 12:57:29;;;;;;;7.20;6.50;;;24.80;99.90;;;;;;4936026;29;20254;-78
2022/07/29 13:00:07;;;;;;;6.80;6.20;;;24.80;99.90;;;;;;4930350;29;20242;-79